Time;durP1;ratioP1;P1;durP2;ratioP2;P2;SDS_P1;SDS_P2;PMS_P1;PMS_P2;Temp;Humidity;BMP_temperature;BMP_pressure;BME280_temperature;BME280_humidity;BME280_pressure;Samples;Min_cycle;Max_cycle;Signal;HPM_P1;HPM_P2
2023/05/16 00:01:54;;;;;;;1.17;0.80;;;;;;;;;;5084177;28;20053;-59
2023/05/16 00:04:23;;;;;;;2.03;0.95;;;;;;;;;;5085829;28;20684;-56
2023/05/16 00:06:52;;;;;;;1.17;0.82;;;;;;;;;;5082798;28;20048;-58
2023/05/16 00:09:20;;;;;;;0.98;0.60;;;;;;;;;;5084773;28;20054;-57
2023/05/16 00:11:49;;;;;;;1.95;1.33;;;;;;;;;;5082423;28;20055;-65
2023/05/16 00:14:18;;;;;;;0.73;0.65;;;;;;;;;;5083204;28;20048;-57
2023/05/16 00:16:46;;;;;;;1.80;1.00;;;;;;;;;;5082919;28;20174;-58
2023/05/16 00:19:16;;;;;;;1.48;0.77;;;;;;;;;;5085292;28;20106;-57
2023/05/16 00:21:45;;;;;;;1.10;0.70;;;;;;;;;;5084761;28;20050;-60
2023/05/16 00:24:13;;;;;;;2.30;1.10;;;;;;;;;;5084044;28;20412;-56
2023/05/16 00:26:42;;;;;;;1.95;1.10;;;;;;;;;;5079537;28;20428;-57
2023/05/16 00:29:10;;;;;;;1.23;1.00;;;;;;;;;;5081444;28;20052;-58
2023/05/16 00:31:38;;;;;;;1.95;1.08;;;;;;;;;;5081944;28;20049;-57
2023/05/16 00:34:07;;;;;;;1.13;0.70;;;;;;;;;;5085026;28;20067;-59
2023/05/16 00:36:36;;;;;;;1.35;1.05;;;;;;;;;;5082191;28;20044;-58
2023/05/16 00:39:05;;;;;;;1.33;1.23;;;;;;;;;;5081850;28;20063;-57
2023/05/16 00:41:34;;;;;;;3.05;1.35;;;;;;;;;;5084225;28;20093;-57
2023/05/16 00:44:02;;;;;;;3.20;1.25;;;;;;;;;;5081981;28;20048;-59
2023/05/16 00:46:31;;;;;;;1.73;0.88;;;;;;;;;;5083457;28;20080;-61
2023/05/16 00:48:59;;;;;;;2.33;0.82;;;;;;;;;;5082523;28;20044;-57
2023/05/16 00:51:27;;;;;;;1.10;1.00;;;;;;;;;;5081411;28;20056;-57
2023/05/16 00:53:57;;;;;;;1.77;1.15;;;;;;;;;;5084400;28;20055;-59
2023/05/16 00:56:26;;;;;;;2.10;1.00;;;;;;;;;;5082938;28;20040;-59
2023/05/16 00:58:54;;;;;;;2.47;1.20;;;;;;;;;;5080714;28;20048;-56
2023/05/16 01:01:24;;;;;;;3.05;1.40;;;;;;;;;;5084591;28;20489;-56
2023/05/16 01:03:53;;;;;;;1.08;0.57;;;;;;;;;;5086251;22;20052;-63
2023/05/16 01:06:21;;;;;;;2.92;1.15;;;;;;;;;;5073210;28;20044;-64
2023/05/16 01:08:50;;;;;;;2.15;0.70;;;;;;;;;;5072909;28;20059;-64
2023/05/16 01:11:23;;;;;;;0.98;0.70;;;;;;;;;;5074076;28;20064;-68
2023/05/16 01:13:56;;;;;;;1.52;0.70;;;;;;;;;;5073508;28;20079;-63
2023/05/16 01:16:27;;;;;;;2.47;0.95;;;;;;;;;;5073119;28;20504;-65
2023/05/16 01:19:01;;;;;;;3.35;0.70;;;;;;;;;;5073207;28;20495;-65
2023/05/16 01:21:39;;;;;;;3.03;1.45;;;;;;;;;;5072927;28;20048;-64
2023/05/16 01:24:13;;;;;;;1.20;0.82;;;;;;;;;;5073236;28;20048;-64
2023/05/16 01:26:44;;;;;;;1.33;0.80;;;;;;;;;;5073179;28;20135;-63
2023/05/16 01:29:13;;;;;;;0.95;0.80;;;;;;;;;;5072717;28;20480;-65
2023/05/16 01:31:41;;;;;;;1.35;0.90;;;;;;;;;;5069704;28;20527;-64
2023/05/16 01:34:09;;;;;;;9.07;1.27;;;;;;;;;;5061434;28;20049;-64
2023/05/16 01:36:42;;;;;;;5.03;1.00;;;;;;;;;;5061125;28;20124;-64
2023/05/16 01:39:15;;;;;;;4.93;1.27;;;;;;;;;;5060375;28;20063;-65
2023/05/16 01:41:52;;;;;;;1.88;0.88;;;;;;;;;;5058663;28;20066;-66
2023/05/16 01:44:24;;;;;;;4.97;1.85;;;;;;;;;;5059463;28;20467;-65
2023/05/16 01:46:55;;;;;;;3.70;1.25;;;;;;;;;;5061057;28;20345;-64
2023/05/16 01:49:27;;;;;;;1.20;1.10;;;;;;;;;;5059671;28;20490;-65
2023/05/16 01:51:59;;;;;;;3.03;1.20;;;;;;;;;;5058243;28;20234;-65
2023/05/16 01:54:31;;;;;;;1.08;0.82;;;;;;;;;;5058695;28;20461;-64
2023/05/16 01:57:02;;;;;;;1.77;1.20;;;;;;;;;;5060975;28;20134;-65
2023/05/16 01:59:31;;;;;;;1.45;1.13;;;;;;;;;;5057691;28;20048;-64
2023/05/16 02:01:59;;;;;;;4.10;1.83;;;;;;;;;;5059154;28;20055;-64
2023/05/16 02:04:28;;;;;;;1.67;1.00;;;;;;;;;;5058143;28;20053;-65
2023/05/16 02:06:56;;;;;;;2.08;0.95;;;;;;;;;;5058555;28;20053;-66
2023/05/16 02:09:25;;;;;;;4.57;1.73;;;;;;;;;;5056145;28;20052;-64
2023/05/16 02:11:53;;;;;;;1.98;1.17;;;;;;;;;;5058429;28;20051;-65
2023/05/16 02:14:24;;;;;;;1.10;0.90;;;;;;;;;;5059347;28;20059;-64
2023/05/16 02:16:54;;;;;;;1.48;0.88;;;;;;;;;;5059992;28;20047;-64
2023/05/16 02:19:22;;;;;;;3.28;1.48;;;;;;;;;;5059487;28;20131;-67
2023/05/16 02:21:50;;;;;;;3.00;1.20;;;;;;;;;;5062697;28;20063;-65
2023/05/16 02:24:19;;;;;;;7.63;1.20;;;;;;;;;;5063294;28;20049;-64
2023/05/16 02:26:47;;;;;;;2.25;1.02;;;;;;;;;;5058619;28;20148;-65
2023/05/16 02:29:16;;;;;;;7.90;1.15;;;;;;;;;;5061704;28;20045;-65
2023/05/16 02:31:46;;;;;;;2.10;1.23;;;;;;;;;;5064829;28;20277;-64
2023/05/16 02:34:14;;;;;;;4.28;1.67;;;;;;;;;;5062166;28;20071;-67
2023/05/16 02:36:43;;;;;;;1.70;1.05;;;;;;;;;;5065211;28;20123;-65
2023/05/16 02:39:11;;;;;;;2.13;1.27;;;;;;;;;;5062530;28;20520;-65
2023/05/16 02:41:40;;;;;;;2.67;0.90;;;;;;;;;;5062577;28;20413;-67
2023/05/16 02:44:10;;;;;;;4.25;1.23;;;;;;;;;;5059569;28;20150;-64
2023/05/16 02:46:38;;;;;;;2.33;1.15;;;;;;;;;;5063802;28;20056;-66
2023/05/16 02:49:08;;;;;;;6.30;1.73;;;;;;;;;;5064524;28;20052;-64
2023/05/16 02:51:36;;;;;;;1.25;0.85;;;;;;;;;;5063477;28;20052;-64
2023/05/16 02:54:07;;;;;;;1.95;0.95;;;;;;;;;;5063056;28;20413;-64
2023/05/16 02:56:36;;;;;;;1.83;0.88;;;;;;;;;;5062500;28;20430;-65
2023/05/16 02:59:05;;;;;;;2.70;1.17;;;;;;;;;;5062034;28;20066;-64
2023/05/16 03:01:33;;;;;;;4.43;0.73;;;;;;;;;;5064998;28;20512;-65
2023/05/16 03:04:02;;;;;;;1.67;0.73;;;;;;;;;;5061797;28;20060;-65
2023/05/16 03:06:32;;;;;;;1.48;1.02;;;;;;;;;;5060558;28;20517;-68
2023/05/16 03:09:00;;;;;;;2.20;1.23;;;;;;;;;;5064915;28;20071;-65
2023/05/16 03:11:29;;;;;;;1.70;0.73;;;;;;;;;;5063964;28;20048;-65
2023/05/16 03:13:58;;;;;;;1.58;1.10;;;;;;;;;;5061867;28;20048;-64
2023/05/16 03:16:29;;;;;;;1.13;0.68;;;;;;;;;;5065178;28;20503;-63
2023/05/16 03:18:57;;;;;;;1.90;1.10;;;;;;;;;;5062857;28;20145;-64
2023/05/16 03:21:26;;;;;;;3.53;1.75;;;;;;;;;;5061799;28;20348;-63
2023/05/16 03:23:56;;;;;;;1.52;0.95;;;;;;;;;;5063439;28;20053;-66
2023/05/16 03:26:24;;;;;;;4.65;1.60;;;;;;;;;;5063262;28;20056;-66
2023/05/16 03:28:52;;;;;;;2.88;1.38;;;;;;;;;;5055834;28;20045;-64
2023/05/16 03:31:21;;;;;;;2.83;1.10;;;;;;;;;;5062148;28;20585;-64
2023/05/16 03:33:49;;;;;;;3.35;1.40;;;;;;;;;;5061869;28;20159;-66
2023/05/16 03:36:18;;;;;;;2.42;0.88;;;;;;;;;;5061843;28;20056;-66
2023/05/16 03:38:46;;;;;;;1.63;0.90;;;;;;;;;;5063193;28;20057;-63
2023/05/16 03:41:16;;;;;;;6.95;1.50;;;;;;;;;;5062215;28;20056;-63
2023/05/16 03:43:44;;;;;;;3.78;1.50;;;;;;;;;;5061021;28;20044;-64
2023/05/16 03:46:13;;;;;;;3.00;1.38;;;;;;;;;;5061576;28;20151;-64
2023/05/16 03:48:41;;;;;;;5.43;1.35;;;;;;;;;;5062018;28;20051;-64
2023/05/16 03:51:10;;;;;;;2.97;1.30;;;;;;;;;;5063180;28;20593;-64
2023/05/16 03:53:38;;;;;;;1.55;1.25;;;;;;;;;;5063592;28;20054;-66
2023/05/16 03:56:06;;;;;;;2.92;1.77;;;;;;;;;;5061454;28;20496;-64
2023/05/16 03:58:36;;;;;;;3.85;1.25;;;;;;;;;;5058355;28;20849;-65
2023/05/16 04:01:05;;;;;;;1.15;1.02;;;;;;;;;;5061418;28;20144;-68
2023/05/16 04:03:33;;;;;;;4.15;1.65;;;;;;;;;;5056145;28;20428;-63
2023/05/16 04:06:01;;;;;;;3.22;1.88;;;;;;;;;;5061265;28;20068;-63
2023/05/16 04:08:30;;;;;;;5.43;1.95;;;;;;;;;;5063980;28;20370;-65
2023/05/16 04:10:58;;;;;;;6.72;1.95;;;;;;;;;;5062677;28;20547;-66
2023/05/16 04:13:27;;;;;;;2.13;1.33;;;;;;;;;;5058490;28;20126;-64
2023/05/16 04:15:57;;;;;;;3.80;1.50;;;;;;;;;;5060249;28;20136;-63
2023/05/16 04:18:25;;;;;;;1.98;1.40;;;;;;;;;;5060438;28;20124;-65
2023/05/16 04:20:53;;;;;;;4.60;1.88;;;;;;;;;;5058917;28;20119;-65
2023/05/16 04:23:21;;;;;;;1.58;0.85;;;;;;;;;;5058270;28;20049;-64
2023/05/16 04:25:50;;;;;;;2.80;1.80;;;;;;;;;;5060032;28;20064;-63
2023/05/16 04:28:18;;;;;;;3.38;1.95;;;;;;;;;;5058048;28;20060;-64
2023/05/16 04:30:47;;;;;;;2.95;2.08;;;;;;;;;;5059285;28;20131;-64
2023/05/16 04:33:17;;;;;;;5.05;1.25;;;;;;;;;;5060736;28;20438;-65
2023/05/16 04:35:45;;;;;;;5.97;2.03;;;;;;;;;;5060334;28;20543;-67
2023/05/16 04:38:14;;;;;;;3.20;1.58;;;;;;;;;;5059781;28;20053;-64
2023/05/16 04:40:42;;;;;;;3.03;1.88;;;;;;;;;;5058317;28;20070;-64
2023/05/16 04:43:10;;;;;;;2.83;1.40;;;;;;;;;;5058107;28;20045;-67
2023/05/16 04:45:40;;;;;;;2.78;1.58;;;;;;;;;;5062012;28;20052;-66
2023/05/16 04:48:09;;;;;;;4.97;2.30;;;;;;;;;;5062553;28;20063;-63
2023/05/16 04:50:39;;;;;;;4.47;2.22;;;;;;;;;;5059787;28;20040;-64
2023/05/16 04:53:07;;;;;;;6.85;2.28;;;;;;;;;;5060572;28;20041;-63
2023/05/16 04:55:35;;;;;;;5.45;1.85;;;;;;;;;;5059072;28;20045;-67
2023/05/16 04:58:04;;;;;;;4.00;2.00;;;;;;;;;;5060637;28;20052;-68
2023/05/16 05:00:32;;;;;;;2.88;1.73;;;;;;;;;;5059120;28;20052;-63
2023/05/16 05:03:00;;;;;;;4.72;1.65;;;;;;;;;;5060160;28;20523;-63
2023/05/16 05:05:29;;;;;;;4.45;2.05;;;;;;;;;;5060135;28;20540;-63
2023/05/16 05:08:00;;;;;;;4.55;1.85;;;;;;;;;;5061408;28;20056;-65
2023/05/16 05:10:30;;;;;;;5.20;1.77;;;;;;;;;;5061289;28;20095;-63
2023/05/16 05:12:59;;;;;;;2.50;1.33;;;;;;;;;;5058003;28;20060;-66
2023/05/16 05:15:27;;;;;;;3.97;1.75;;;;;;;;;;5060589;28;20063;-65
2023/05/16 05:17:56;;;;;;;2.85;1.20;;;;;;;;;;5062295;28;20451;-68
2023/05/16 05:20:25;;;;;;;3.67;2.20;;;;;;;;;;5059653;28;20070;-65
2023/05/16 05:22:53;;;;;;;3.58;1.45;;;;;;;;;;5062965;28;20048;-66
2023/05/16 05:25:23;;;;;;;4.22;2.08;;;;;;;;;;5060308;28;20481;-64
2023/05/16 05:27:51;;;;;;;4.25;1.60;;;;;;;;;;5058549;28;20084;-64
2023/05/16 05:30:20;;;;;;;2.25;1.70;;;;;;;;;;5059965;28;20144;-65
2023/05/16 05:32:48;;;;;;;3.53;1.60;;;;;;;;;;5060785;28;20139;-67
2023/05/16 05:35:17;;;;;;;3.78;2.10;;;;;;;;;;5059991;28;20390;-65
2023/05/16 05:37:45;;;;;;;2.00;1.20;;;;;;;;;;5058942;28;20047;-65
2023/05/16 05:40:13;;;;;;;5.22;1.63;;;;;;;;;;5060048;28;20044;-65
2023/05/16 05:42:43;;;;;;;2.85;1.50;;;;;;;;;;5061381;28;20040;-65
2023/05/16 05:45:14;;;;;;;2.13;1.50;;;;;;;;;;5058134;28;20048;-64
2023/05/16 05:47:43;;;;;;;4.82;2.10;;;;;;;;;;5060923;28;20067;-66
2023/05/16 05:50:13;;;;;;;2.97;1.88;;;;;;;;;;5057859;28;20044;-65
2023/05/16 05:52:41;;;;;;;1.77;1.35;;;;;;;;;;5057522;28;20040;-65
2023/05/16 05:55:09;;;;;;;4.30;1.80;;;;;;;;;;5052959;28;20705;-64
2023/05/16 05:57:38;;;;;;;4.80;2.22;;;;;;;;;;5057168;28;20052;-63
2023/05/16 06:00:09;;;;;;;1.52;1.10;;;;;;;;;;5057966;28;20423;-64
2023/05/16 06:02:37;;;;;;;5.57;2.15;;;;;;;;;;5057918;28;20141;-64
2023/05/16 06:05:06;;;;;;;8.73;2.53;;;;;;;;;;5057400;28;20459;-66
2023/05/16 06:07:35;;;;;;;2.80;1.73;;;;;;;;;;5054210;28;20516;-63
2023/05/16 06:10:04;;;;;;;5.13;1.77;;;;;;;;;;5058455;28;20142;-63
2023/05/16 06:12:32;;;;;;;7.72;1.67;;;;;;;;;;5058235;28;20088;-66
2023/05/16 06:15:01;;;;;;;4.03;1.73;;;;;;;;;;5055777;28;20066;-64
2023/05/16 06:17:30;;;;;;;4.82;2.53;;;;;;;;;;5058804;28;20163;-64
2023/05/16 06:19:59;;;;;;;4.28;2.13;;;;;;;;;;5055297;28;20480;-66
2023/05/16 06:22:27;;;;;;;3.75;2.08;;;;;;;;;;5050602;28;20059;-66
2023/05/16 06:24:56;;;;;;;5.88;2.38;;;;;;;;;;5049695;28;20761;-64
2023/05/16 06:27:24;;;;;;;4.25;2.60;;;;;;;;;;5057355;28;20094;-65
2023/05/16 06:29:52;;;;;;;5.75;2.97;;;;;;;;;;5056648;28;20155;-63
2023/05/16 06:32:21;;;;;;;4.75;1.63;;;;;;;;;;5057539;28;20047;-67
2023/05/16 06:34:50;;;;;;;8.00;2.75;;;;;;;;;;5058672;28;20060;-67
2023/05/16 06:37:19;;;;;;;4.18;1.77;;;;;;;;;;5059441;28;20044;-66
2023/05/16 06:39:47;;;;;;;4.20;1.98;;;;;;;;;;5055873;28;20106;-64
2023/05/16 06:42:16;;;;;;;1.67;1.30;;;;;;;;;;5055617;28;20052;-63
2023/05/16 06:44:45;;;;;;;4.80;1.83;;;;;;;;;;5055578;28;20126;-65
2023/05/16 06:47:13;;;;;;;4.57;1.95;;;;;;;;;;5057314;28;20185;-64
2023/05/16 06:49:42;;;;;;;4.82;2.08;;;;;;;;;;5055366;28;20491;-63
2023/05/16 06:52:11;;;;;;;3.25;2.25;;;;;;;;;;5057551;28;20086;-66
2023/05/16 06:54:40;;;;;;;3.25;1.65;;;;;;;;;;5056787;28;20109;-67
2023/05/16 06:57:08;;;;;;;3.97;1.42;;;;;;;;;;5058642;28;20171;-63
2023/05/16 06:59:37;;;;;;;4.85;2.35;;;;;;;;;;5057322;28;20051;-63
2023/05/16 07:02:05;;;;;;;2.97;1.55;;;;;;;;;;5059542;28;20064;-63
2023/05/16 07:04:35;;;;;;;3.03;1.70;;;;;;;;;;5058140;28;20040;-64
2023/05/16 07:07:06;;;;;;;4.10;2.35;;;;;;;;;;5059192;28;20528;-64
2023/05/16 07:09:36;;;;;;;4.18;2.15;;;;;;;;;;5059406;28;20103;-65
2023/05/16 07:12:04;;;;;;;6.78;2.08;;;;;;;;;;5061631;28;20460;-63
2023/05/16 07:14:33;;;;;;;5.15;2.85;;;;;;;;;;5061158;28;20471;-65
2023/05/16 07:17:03;;;;;;;7.20;2.03;;;;;;;;;;5057641;28;20083;-64
2023/05/16 07:19:31;;;;;;;5.43;2.33;;;;;;;;;;5060230;28;20413;-64
2023/05/16 07:21:59;;;;;;;4.03;1.88;;;;;;;;;;5059273;28;20513;-68
2023/05/16 07:24:28;;;;;;;6.68;3.50;;;;;;;;;;5064966;28;20499;-64
2023/05/16 07:26:58;;;;;;;3.25;2.45;;;;;;;;;;5062375;28;20076;-64
2023/05/16 07:29:26;;;;;;;4.93;2.17;;;;;;;;;;5063796;28;20120;-64
2023/05/16 07:31:54;;;;;;;4.95;2.28;;;;;;;;;;5059044;28;20052;-65
2023/05/16 07:34:23;;;;;;;3.40;1.95;;;;;;;;;;5063322;28;20049;-64
2023/05/16 07:36:51;;;;;;;2.72;1.52;;;;;;;;;;5063909;28;20056;-64
2023/05/16 07:39:20;;;;;;;4.43;1.90;;;;;;;;;;5059735;28;20140;-65
2023/05/16 07:41:48;;;;;;;1.83;1.40;;;;;;;;;;5062168;28;20485;-64
2023/05/16 07:44:18;;;;;;;3.15;2.42;;;;;;;;;;5061205;28;20117;-64
2023/05/16 07:46:46;;;;;;;4.95;2.17;;;;;;;;;;5060491;28;20622;-66
2023/05/16 07:49:15;;;;;;;2.50;1.50;;;;;;;;;;5064393;28;20067;-65
2023/05/16 07:51:43;;;;;;;2.35;1.25;;;;;;;;;;5060174;28;20106;-65
2023/05/16 07:54:12;;;;;;;5.60;2.40;;;;;;;;;;5060737;28;20090;-64
2023/05/16 07:56:40;;;;;;;5.47;2.22;;;;;;;;;;5061158;28;20179;-66
2023/05/16 07:59:09;;;;;;;2.03;1.63;;;;;;;;;;5061607;28;20052;-63
2023/05/16 08:01:38;;;;;;;3.15;1.40;;;;;;;;;;5063193;28;20500;-63
2023/05/16 08:04:07;;;;;;;3.50;2.00;;;;;;;;;;5061031;28;20080;-65
2023/05/16 08:06:35;;;;;;;4.00;1.95;;;;;;;;;;5059472;28;20153;-65
2023/05/16 08:09:04;;;;;;;4.22;2.45;;;;;;;;;;5060355;28;20097;-65
2023/05/16 08:11:32;;;;;;;3.88;1.85;;;;;;;;;;5061470;28;20725;-63
2023/05/16 08:14:01;;;;;;;5.75;2.20;;;;;;;;;;5062683;28;20055;-63
2023/05/16 08:16:30;;;;;;;5.38;2.55;;;;;;;;;;5060514;28;20040;-65
2023/05/16 08:19:00;;;;;;;5.90;1.70;;;;;;;;;;5065250;28;20098;-64
2023/05/16 08:21:29;;;;;;;1.95;1.05;;;;;;;;;;5062757;28;20056;-67
2023/05/16 08:23:58;;;;;;;2.92;1.30;;;;;;;;;;5061362;28;20143;-65
2023/05/16 08:26:26;;;;;;;2.42;1.95;;;;;;;;;;5063368;28;20817;-64
2023/05/16 08:28:55;;;;;;;4.53;2.17;;;;;;;;;;5062129;28;20555;-63
2023/05/16 08:31:23;;;;;;;3.38;1.90;;;;;;;;;;5060787;28;20079;-68
2023/05/16 08:33:51;;;;;;;4.05;2.15;;;;;;;;;;5063677;28;20056;-63
2023/05/16 08:36:21;;;;;;;6.90;2.22;;;;;;;;;;5062280;28;20076;-64
2023/05/16 08:38:50;;;;;;;4.88;2.30;;;;;;;;;;5062189;28;20580;-63
2023/05/16 08:41:18;;;;;;;5.30;2.08;;;;;;;;;;5060886;28;20048;-64
2023/05/16 08:43:47;;;;;;;3.28;1.67;;;;;;;;;;5062099;28;20053;-68
2023/05/16 08:46:16;;;;;;;3.72;1.80;;;;;;;;;;5059284;28;20061;-67
2023/05/16 08:48:46;;;;;;;6.50;2.00;;;;;;;;;;5062637;28;20041;-64
2023/05/16 08:51:18;;;;;;;5.75;2.63;;;;;;;;;;5062536;28;20045;-64
2023/05/16 08:53:51;;;;;;;5.35;1.92;;;;;;;;;;5062987;28;20048;-65
2023/05/16 08:56:21;;;;;;;4.95;2.30;;;;;;;;;;5060739;28;20558;-67
2023/05/16 08:58:50;;;;;;;10.63;2.70;;;;;;;;;;5061321;28;20059;-65
2023/05/16 09:01:19;;;;;;;3.30;1.92;;;;;;;;;;5061496;28;20114;-67
2023/05/16 09:03:48;;;;;;;10.85;2.85;;;;;;;;;;5062243;28;20056;-65
2023/05/16 09:06:16;;;;;;;5.10;2.05;;;;;;;;;;5061687;28;20051;-66
2023/05/16 09:08:45;;;;;;;4.03;2.08;;;;;;;;;;5061721;28;20052;-66
2023/05/16 09:11:15;;;;;;;6.38;2.40;;;;;;;;;;5058483;28;20056;-66
2023/05/16 09:13:44;;;;;;;3.22;2.10;;;;;;;;;;5064238;28;20052;-66
2023/05/16 09:16:13;;;;;;;4.70;3.13;;;;;;;;;;5061135;28;20055;-66
2023/05/16 09:18:43;;;;;;;6.57;2.30;;;;;;;;;;5063051;28;20076;-65
2023/05/16 09:21:12;;;;;;;3.85;2.03;;;;;;;;;;5060996;28;20047;-66
2023/05/16 09:23:43;;;;;;;6.32;3.03;;;;;;;;;;5059782;28;20489;-64
2023/05/16 09:26:12;;;;;;;6.35;2.20;;;;;;;;;;5061405;28;20074;-65
2023/05/16 09:28:42;;;;;;;4.32;1.80;;;;;;;;;;5061992;28;21675;-64
2023/05/16 09:31:25;;;;;;;4.68;2.10;;;;;;;;;;5060398;28;20842;-64
2023/05/16 09:33:53;;;;;;;4.72;2.42;;;;;;;;;;5060139;28;20045;-64
2023/05/16 09:36:22;;;;;;;4.20;2.60;;;;;;;;;;5059596;28;20453;-63
2023/05/16 09:38:51;;;;;;;5.45;2.25;;;;;;;;;;5060598;28;20044;-66
2023/05/16 09:41:22;;;;;;;3.90;2.53;;;;;;;;;;5060201;28;20075;-64
2023/05/16 09:43:51;;;;;;;4.55;2.25;;;;;;;;;;5059759;28;20109;-66
2023/05/16 09:46:20;;;;;;;6.80;2.90;;;;;;;;;;5058924;28;20451;-63
2023/05/16 09:48:48;;;;;;;4.90;2.65;;;;;;;;;;5061464;28;20052;-65
2023/05/16 09:51:17;;;;;;;8.55;2.88;;;;;;;;;;5061138;28;20098;-63
2023/05/16 09:53:45;;;;;;;3.10;2.03;;;;;;;;;;5058464;28;20242;-63
2023/05/16 09:56:15;;;;;;;5.25;2.60;;;;;;;;;;5060714;28;20563;-64
2023/05/16 09:58:44;;;;;;;7.18;3.40;;;;;;;;;;5061859;28;20064;-64
2023/05/16 10:01:14;;;;;;;4.72;3.35;;;;;;;;;;5057906;28;20068;-64
2023/05/16 10:03:43;;;;;;;10.75;3.13;;;;;;;;;;5057687;28;20076;-66
2023/05/16 10:06:12;;;;;;;4.82;2.28;;;;;;;;;;5054249;28;20044;-65
2023/05/16 10:08:42;;;;;;;4.10;2.28;;;;;;;;;;5057308;28;20133;-66
2023/05/16 10:11:11;;;;;;;5.53;2.53;;;;;;;;;;5058718;28;20052;-65
2023/05/16 10:13:47;;;;;;;6.95;2.72;;;;;;;;;;5058131;28;20056;-66
2023/05/16 10:16:19;;;;;;;7.20;2.90;;;;;;;;;;5054720;28;20053;-65
2023/05/16 10:18:47;;;;;;;7.30;2.97;;;;;;;;;;5056904;28;20053;-67
2023/05/16 10:21:17;;;;;;;7.13;3.03;;;;;;;;;;5057664;28;20408;-66
2023/05/16 10:23:48;;;;;;;4.53;2.47;;;;;;;;;;5056499;28;20056;-66
2023/05/16 10:26:18;;;;;;;3.88;2.13;;;;;;;;;;5057743;28;20060;-67
2023/05/16 10:28:48;;;;;;;4.13;2.28;;;;;;;;;;5057221;28;20049;-67
2023/05/16 10:31:17;;;;;;;3.80;2.42;;;;;;;;;;5056438;28;20064;-65
2023/05/16 10:33:46;;;;;;;4.43;2.08;;;;;;;;;;5058425;28;20051;-66
2023/05/16 10:36:15;;;;;;;8.35;3.47;;;;;;;;;;5058973;28;20451;-64
2023/05/16 10:38:43;;;;;;;3.10;2.30;;;;;;;;;;5059788;28;20052;-64
2023/05/16 10:41:12;;;;;;;4.70;2.70;;;;;;;;;;5060014;28;20053;-63
2023/05/16 10:43:41;;;;;;;4.82;2.20;;;;;;;;;;5062083;28;20110;-63
2023/05/16 10:46:12;;;;;;;5.97;2.15;;;;;;;;;;5058105;28;20404;-64
2023/05/16 10:48:42;;;;;;;6.28;2.90;;;;;;;;;;5061179;28;20546;-65
2023/05/16 10:51:26;;;;;;;9.98;3.30;;;;;;;;;;5059726;28;20125;-64
2023/05/16 10:53:55;;;;;;;6.72;2.63;;;;;;;;;;5062648;28;20045;-64
2023/05/16 10:56:24;;;;;;;6.72;2.75;;;;;;;;;;5064246;28;20090;-64
2023/05/16 10:58:54;;;;;;;4.15;2.47;;;;;;;;;;5063852;28;20500;-65
2023/05/16 11:01:23;;;;;;;4.07;2.13;;;;;;;;;;5063530;28;20049;-64
2023/05/16 11:04:02;;;;;;;7.65;2.70;;;;;;;;;;5063985;28;20599;-62
2023/05/16 11:06:32;;;;;;;7.25;2.83;;;;;;;;;;5061929;28;20132;-63
2023/05/16 11:09:08;;;;;;;8.30;2.55;;;;;;;;;;5061138;28;20474;-63
2023/05/16 11:11:39;;;;;;;7.32;3.20;;;;;;;;;;5063174;28;20048;-64
2023/05/16 11:14:08;;;;;;;5.40;2.58;;;;;;;;;;5061115;28;20056;-64
2023/05/16 11:16:36;;;;;;;4.68;2.40;;;;;;;;;;5060643;28;20052;-63
2023/05/16 11:19:06;;;;;;;4.07;1.92;;;;;;;;;;5062386;28;20694;-63
2023/05/16 11:21:54;;;;;;;8.32;3.20;;;;;;;;;;5064317;28;20044;-64
2023/05/16 11:24:28;;;;;;;5.00;2.90;;;;;;;;;;5062976;28;20040;-63
2023/05/16 11:26:58;;;;;;;6.82;3.40;;;;;;;;;;5060886;28;20082;-64
2023/05/16 11:29:27;;;;;;;4.68;2.22;;;;;;;;;;5065216;28;20075;-63
2023/05/16 11:31:55;;;;;;;6.50;2.83;;;;;;;;;;5063104;28;20078;-63
2023/05/16 11:34:25;;;;;;;4.32;2.38;;;;;;;;;;5063560;28;20048;-65
2023/05/16 11:36:54;;;;;;;5.82;2.72;;;;;;;;;;5063489;28;20052;-63
2023/05/16 11:39:24;;;;;;;5.78;2.13;;;;;;;;;;5063145;28;20082;-64
2023/05/16 11:41:54;;;;;;;7.35;3.33;;;;;;;;;;5063601;28;20076;-64
2023/05/16 11:44:23;;;;;;;6.32;3.28;;;;;;;;;;5063541;28;20044;-64
2023/05/16 11:46:51;;;;;;;9.73;3.75;;;;;;;;;;5062788;28;20102;-64
2023/05/16 11:49:20;;;;;;;8.80;4.35;;;;;;;;;;5061644;28;20044;-65
2023/05/16 11:51:51;;;;;;;7.90;3.63;;;;;;;;;;5060638;28;20048;-66
2023/05/16 11:54:19;;;;;;;7.55;3.78;;;;;;;;;;5063125;28;20084;-70
2023/05/16 11:56:48;;;;;;;10.70;3.47;;;;;;;;;;5062574;28;20819;-67
2023/05/16 11:59:17;;;;;;;6.63;3.30;;;;;;;;;;5058095;28;20494;-65
2023/05/16 12:01:47;;;;;;;6.18;2.95;;;;;;;;;;5060952;28;20052;-65
2023/05/16 12:04:16;;;;;;;10.95;4.15;;;;;;;;;;5062496;28;20045;-65
2023/05/16 12:06:47;;;;;;;6.78;2.75;;;;;;;;;;5061821;28;20055;-66
2023/05/16 12:09:16;;;;;;;7.68;3.42;;;;;;;;;;5060805;28;20044;-64
2023/05/16 12:11:46;;;;;;;7.55;2.72;;;;;;;;;;5062246;28;20706;-65
2023/05/16 12:14:14;;;;;;;9.25;2.53;;;;;;;;;;5063048;28;20056;-65
2023/05/16 12:16:45;;;;;;;4.70;3.00;;;;;;;;;;5062253;28;20552;-66
2023/05/16 12:19:13;;;;;;;6.82;2.85;;;;;;;;;;5063753;28;20065;-67
2023/05/16 12:21:42;;;;;;;7.10;3.03;;;;;;;;;;5062180;28;20048;-65
2023/05/16 12:24:11;;;;;;;9.13;3.65;;;;;;;;;;5061690;28;20051;-63
2023/05/16 12:26:43;;;;;;;8.32;3.45;;;;;;;;;;5063081;28;20059;-64
2023/05/16 12:29:11;;;;;;;6.85;3.03;;;;;;;;;;5061799;28;20044;-66
2023/05/16 12:31:41;;;;;;;7.63;3.38;;;;;;;;;;5060647;28;20056;-64
2023/05/16 12:34:16;;;;;;;8.45;3.60;;;;;;;;;;5062779;28;20509;-67
2023/05/16 12:36:44;;;;;;;5.28;3.80;;;;;;;;;;5060537;28;20067;-63
2023/05/16 12:39:14;;;;;;;9.55;4.18;;;;;;;;;;5063364;28;20045;-64
2023/05/16 12:41:43;;;;;;;5.45;3.45;;;;;;;;;;5063678;28;20879;-63
2023/05/16 12:44:15;;;;;;;5.45;2.88;;;;;;;;;;5060040;28;20044;-68
2023/05/16 12:46:44;;;;;;;7.00;3.38;;;;;;;;;;5059294;28;20048;-63
2023/05/16 12:49:13;;;;;;;6.32;3.22;;;;;;;;;;5060797;28;20086;-63
2023/05/16 12:51:48;;;;;;;8.05;3.50;;;;;;;;;;5058933;28;20475;-63
2023/05/16 12:54:17;;;;;;;9.35;4.25;;;;;;;;;;5060763;28;20131;-64
2023/05/16 12:56:47;;;;;;;5.95;2.67;;;;;;;;;;5062368;28;20049;-63
2023/05/16 12:59:16;;;;;;;5.10;3.28;;;;;;;;;;5064483;28;21601;-65
2023/05/16 13:01:45;;;;;;;8.23;3.17;;;;;;;;;;5059186;28;20048;-65
2023/05/16 13:04:17;;;;;;;6.22;3.17;;;;;;;;;;5059259;28;20052;-69
2023/05/16 13:06:47;;;;;;;10.35;3.30;;;;;;;;;;5061938;28;20080;-65
2023/05/16 13:09:18;;;;;;;4.97;2.90;;;;;;;;;;5059499;28;20068;-63
2023/05/16 13:11:48;;;;;;;5.32;3.03;;;;;;;;;;5062555;28;20049;-64
2023/05/16 13:14:16;;;;;;;7.00;3.00;;;;;;;;;;5056869;28;20053;-63
2023/05/16 13:16:45;;;;;;;10.60;3.92;;;;;;;;;;5059034;28;20052;-65
2023/05/16 13:19:13;;;;;;;4.93;2.75;;;;;;;;;;5060524;28;20493;-65
2023/05/16 13:21:42;;;;;;;5.88;2.80;;;;;;;;;;5061321;28;20041;-70
2023/05/16 13:24:10;;;;;;;6.40;3.05;;;;;;;;;;5060519;28;20048;-64
2023/05/16 13:26:39;;;;;;;5.43;2.78;;;;;;;;;;5059323;28;20159;-68
2023/05/16 13:29:10;;;;;;;7.97;3.03;;;;;;;;;;5060090;28;20044;-67
2023/05/16 13:31:38;;;;;;;6.93;2.63;;;;;;;;;;5060929;28;20048;-66
2023/05/16 13:34:07;;;;;;;1.85;1.55;;;;;;;;;;5061316;28;20064;-64
2023/05/16 13:36:36;;;;;;;2.90;2.28;;;;;;;;;;5060912;28;20048;-63
2023/05/16 13:39:21;;;;;;;;;;;;;;;;;;5061912;28;20114;-65
2023/05/16 13:41:50;;;;;;;2.50;1.50;;;;;;;;;;5061691;28;19932;-63
2023/05/16 13:44:21;;;;;;;2.75;1.42;;;;;;;;;;5059432;28;20180;-63
2023/05/16 13:46:49;;;;;;;2.65;1.65;;;;;;;;;;5057318;28;20059;-65
2023/05/16 13:49:18;;;;;;;2.30;1.58;;;;;;;;;;5062274;28;20603;-63
2023/05/16 13:51:47;;;;;;;3.92;1.58;;;;;;;;;;5062123;28;20394;-64
2023/05/16 13:54:15;;;;;;;3.25;1.60;;;;;;;;;;5060377;28;20416;-63
2023/05/16 13:56:44;;;;;;;2.25;1.27;;;;;;;;;;5054604;28;20139;-65
2023/05/16 13:59:13;;;;;;;10.57;2.10;;;;;;;;;;5059340;28;20044;-68
2023/05/16 14:01:52;;;;;;;2.75;1.38;;;;;;;;;;5057975;28;20106;-64
2023/05/16 14:04:21;;;;;;;3.78;1.48;;;;;;;;;;5020430;28;20041;-63
2023/05/16 14:06:50;;;;;;;3.25;1.40;;;;;;;;;;5018984;28;20073;-64
2023/05/16 14:09:18;;;;;;;2.63;1.90;;;;;;;;;;5022137;28;20576;-63
2023/05/16 14:11:47;;;;;;;2.55;1.48;;;;;;;;;;5022272;28;20057;-64
2023/05/16 14:14:15;;;;;;;2.38;1.67;;;;;;;;;;5021021;28;20073;-64
2023/05/16 14:16:45;;;;;;;2.85;2.03;;;;;;;;;;5020500;28;20048;-63
2023/05/16 14:19:15;;;;;;;4.60;1.77;;;;;;;;;;5018490;28;20506;-65
2023/05/16 14:21:46;;;;;;;4.72;1.83;;;;;;;;;;5021301;28;20049;-64
2023/05/16 14:24:15;;;;;;;1.90;1.25;;;;;;;;;;5020249;28;20054;-68
2023/05/16 14:26:43;;;;;;;2.03;1.38;;;;;;;;;;5019247;28;20103;-64
2023/05/16 14:29:12;;;;;;;2.88;1.15;;;;;;;;;;5019062;28;20049;-64
2023/05/16 14:31:40;;;;;;;1.60;1.35;;;;;;;;;;5016312;28;20049;-66
2023/05/16 14:34:09;;;;;;;3.47;1.65;;;;;;;;;;5019856;28;20042;-67
2023/05/16 14:36:39;;;;;;;4.22;1.92;;;;;;;;;;5016852;28;20045;-67
2023/05/16 14:39:07;;;;;;;2.42;1.45;;;;;;;;;;5017799;28;20050;-64
2023/05/16 14:41:36;;;;;;;4.60;1.52;;;;;;;;;;5019627;28;20046;-63
2023/05/16 14:44:04;;;;;;;3.13;1.83;;;;;;;;;;5017384;28;20049;-66
2023/05/16 14:46:33;;;;;;;2.60;1.88;;;;;;;;;;5017544;28;20210;-66
2023/05/16 14:49:02;;;;;;;3.38;1.80;;;;;;;;;;5020476;28;20045;-64
2023/05/16 14:51:31;;;;;;;2.83;1.50;;;;;;;;;;5020342;28;20049;-68
2023/05/16 14:54:01;;;;;;;5.13;1.52;;;;;;;;;;5022379;28;20125;-64
2023/05/16 14:56:30;;;;;;;3.13;1.30;;;;;;;;;;5019507;28;20073;-64